MMCP/CPE METAR and TAF weather

Enter ICAO airport designator
Station Type Date Time Source
MMCP METAR 2020/12/06 00:40 UTC NOAA

MMCP 060040Z 25004KT 7SM SCT050 25/23 A2997 RMK 8/500


Station Type Date Time Source
MMCP Decoded METAR 2020/12/06 00:40 UTC NOAA

Campeche, Camp., Mexico (MMCP) 19-51N 090-33W
Dec 05, 2020 - 07:40 PM EST / 2020.12.06 0040 UTC
Wind: from the WSW (250 degrees) at 5 MPH (4 KT):0
Visibility: 7 mile(s):0
Sky conditions: partly cloudy
Temperature: 77 F (25 C)
Dew Point: 73 F (23 C)
Relative Humidity: 88%
Pressure (altimeter): 29.97 in. Hg (1014 hPa)
ob: MMCP 060040Z 25004KT 7SM SCT050 25/23 A2997 RMK 8/500
cycle: 0

Station Type Date Time Source
MMCP TAF 2020/12/05 18:19 UTC NOAA

TAF MMCP 051712Z 0518/0618 34012KT P6SM BKN015 OVC070
FM052200 02012KT P6SM -RA BKN015 OVC070
TEMPO 0600/0604 3SM RA
FM060600 08010KT 3SM HZ OVC008
TEMPO 0609/0613 2SM -RA
FM061600 12010KT 4SM HZ OVC015

Example: see airport list